Time;durP1;ratioP1;P1;durP2;ratioP2;P2;SDS_P1;SDS_P2;PMS_P1;PMS_P2;Temp;Humidity;BMP_temperature;BMP_pressure;BME280_temperature;BME280_humidity;BME280_pressure;Samples;Min_cycle;Max_cycle;Signal;HPM_P1;HPM_P2
2022/04/05 00:02:14;;;;;;;;;;;;;;;4.22;60.88;98058.94;5039677;28;1898;-96
2022/04/05 00:04:41;;;;;;;;;;;;;;;4.22;60.96;98058.94;5048002;28;1839;-96
2022/04/05 00:07:08;;;;;;;;;;;;;;;4.21;60.78;98068.00;5048711;28;1399;-96
2022/04/05 00:09:35;;;;;;;;;;;;;;;4.21;60.79;98065.31;5048729;28;1350;-96
2022/04/05 00:12:03;;;;;;;;;;;;;;;4.20;60.89;98069.00;5047609;28;1182;-96
2022/04/05 00:14:30;;;;;;;;;;;;;;;4.19;60.82;98067.41;5047905;28;1372;-96
2022/04/05 00:16:57;;;;;;;;;;;;;;;4.17;60.65;98072.97;5047153;28;1219;-96
2022/04/05 00:19:25;;;;;;;;;;;;;;;4.14;60.59;98070.78;5047211;28;1208;-96
2022/04/05 00:21:54;;;;;;;;;;;;;;;4.17;60.69;98080.16;5045525;28;1918;-96
2022/04/05 00:24:21;;;;;;;;;;;;;;;4.15;60.91;98072.41;5046045;28;1547;-96
2022/04/05 00:26:48;;;;;;;;;;;;;;;4.13;61.01;98077.16;5046499;28;1509;-96
2022/04/05 00:29:15;;;;;;;;;;;;;;;4.15;60.62;98072.41;5047865;28;1656;-96
2022/04/05 00:31:42;;;;;;;;;;;;;;;4.15;60.71;98072.41;5046245;28;1346;-96
2022/04/05 00:34:09;;;;;;;;;;;;;;;4.17;60.61;98074.81;5046704;28;1689;-96
2022/04/05 00:36:36;;;;;;;;;;;;;;;4.18;60.81;98071.13;5047341;28;903;-96
2022/04/05 00:39:04;;;;;;;;;;;;;;;4.19;60.45;98073.53;5046327;28;1933;-96
2022/04/05 00:41:31;;;;;;;;;;;;;;;4.22;60.57;98072.25;5047856;28;1979;-96
2022/04/05 00:43:58;;;;;;;;;;;;;;;4.21;60.78;98076.78;5045478;28;1531;-96
2022/04/05 00:46:25;;;;;;;;;;;;;;;4.23;60.48;98076.53;5045996;28;1227;-96
2022/04/05 00:48:52;;;;;;;;;;;;;;;4.23;60.61;98080.00;5045783;28;1633;-96
2022/04/05 00:51:20;;;;;;;;;;;;;;;4.25;60.40;98075.25;5044541;28;1653;-96
2022/04/05 00:53:47;;;;;;;;;;;;;;;4.24;60.23;98088.81;5046155;28;1122;-96
2022/04/05 00:56:14;;;;;;;;;;;;;;;4.21;60.45;98086.63;5046030;28;1253;-96
2022/04/05 00:58:41;;;;;;;;;;;;;;;4.22;60.43;98085.59;5046112;28;1431;-96
2022/04/05 01:01:09;;;;;;;;;;;;;;;4.21;60.44;98086.63;5045737;28;1895;-96
2022/04/05 01:03:36;;;;;;;;;;;;;;;4.20;60.34;98085.00;5047598;28;1452;-96
2022/04/05 01:06:04;;;;;;;;;;;;;;;4.20;60.41;98083.13;5047472;28;1887;-96
2022/04/05 01:08:31;;;;;;;;;;;;;;;4.22;60.39;98091.72;5044135;28;1596;-96
2022/04/05 01:10:58;;;;;;;;;;;;;;;4.23;60.41;98092.50;5034949;28;1326;-96
2022/04/05 01:13:25;;;;;;;;;;;;;;;4.22;60.44;98093.56;5045569;28;1211;-96
2022/04/05 01:15:52;;;;;;;;;;;;;;;4.23;60.20;98093.31;5045676;28;1283;-96
2022/04/05 01:18:18;;;;;;;;;;;;;;;4.26;60.25;98092.03;5046198;28;1266;-96
2022/04/05 01:20:46;;;;;;;;;;;;;;;4.24;60.39;98092.28;5044707;28;1308;-96
2022/04/05 01:23:13;;;;;;;;;;;;;;;4.25;60.32;98101.91;5045213;28;1926;-96
2022/04/05 01:25:40;;;;;;;;;;;;;;;4.23;60.35;98095.97;5045522;28;1278;-96
2022/04/05 01:28:07;;;;;;;;;;;;;;;4.27;60.29;98102.47;5046658;28;1146;-96
2022/04/05 01:30:34;;;;;;;;;;;;;;;4.27;60.25;98112.31;5044738;28;1256;-96
2022/04/05 01:33:01;;;;;;;;;;;;;;;4.25;60.32;98111.75;5045149;28;1444;-96
2022/04/05 01:35:28;;;;;;;;;;;;;;;4.26;60.29;98108.03;5046100;28;1818;-96
2022/04/05 01:37:55;;;;;;;;;;;;;;;4.28;60.26;98116.59;5046861;28;1295;-96
2022/04/05 01:40:21;;;;;;;;;;;;;;;4.30;60.23;98112.66;5045533;28;1473;-96
2022/04/05 01:42:48;;;;;;;;;;;;;;;4.28;60.06;98119.25;5045179;28;1961;-96
2022/04/05 01:45:15;;;;;;;;;;;;;;;4.27;60.12;98110.47;5044055;28;1378;-96
2022/04/05 01:47:42;;;;;;;;;;;;;;;4.25;60.29;98119.75;5058327;28;1728;-96
2022/04/05 01:50:09;;;;;;;;;;;;;;;4.28;60.05;98117.41;5048724;28;1388;-96
2022/04/05 01:52:36;;;;;;;;;;;;;;;4.32;60.12;98125.72;5048960;28;1291;-96
2022/04/05 01:55:03;;;;;;;;;;;;;;;4.30;59.85;98119.84;5049143;28;1443;-96
2022/04/05 01:57:30;;;;;;;;;;;;;;;4.28;59.99;98125.41;5049201;28;1239;-96
2022/04/05 01:59:57;;;;;;;;;;;;;;;4.30;60.11;98125.97;5048570;28;1741;-96
2022/04/05 02:02:24;;;;;;;;;;;;;;;4.29;60.08;98126.19;5047175;28;1957;-96
2022/04/05 02:04:51;;;;;;;;;;;;;;;4.30;60.10;98120.66;5047916;28;1172;-96
2022/04/05 02:07:18;;;;;;;;;;;;;;;4.31;59.93;98129.44;5046219;28;1809;-96
2022/04/05 02:09:45;;;;;;;;;;;;;;;4.30;59.91;98122.50;5047104;28;1243;-96
2022/04/05 02:12:11;;;;;;;;;;;;;;;4.30;60.05;98122.50;5045390;28;1519;-96
2022/04/05 02:14:38;;;;;;;;;;;;;;;4.33;59.86;98128.16;5046069;28;1514;-96
2022/04/05 02:17:04;;;;;;;;;;;;;;;4.32;60.00;98128.38;5033622;28;1673;-96
2022/04/05 02:19:31;;;;;;;;;;;;;;;4.33;60.09;98133.50;5056948;28;2024;-96
2022/04/05 02:21:58;;;;;;;;;;;;;;;4.33;60.06;98133.50;5035117;28;1898;-96
2022/04/05 02:24:25;;;;;;;;;;;;;;;4.32;59.98;98131.06;5042324;28;1444;-96
2022/04/05 02:26:52;;;;;;;;;;;;;;;4.36;59.82;98126.09;5043330;28;1394;-96
2022/04/05 02:29:19;;;;;;;;;;;;;;;4.34;59.86;98123.63;5042465;28;1338;-96
2022/04/05 02:31:45;;;;;;;;;;;;;;;4.32;60.16;98131.06;5029660;28;1575;-96
2022/04/05 02:34:12;;;;;;;;;;;;;;;4.36;60.03;98131.41;5075026;28;1439;-96
2022/04/05 02:36:38;;;;;;;;;;;;;;;4.34;59.81;98128.97;5040416;28;1628;-96
2022/04/05 02:39:05;;;;;;;;;;;;;;;4.33;60.00;98125.50;5038305;28;1523;-96
2022/04/05 02:41:31;;;;;;;;;;;;;;;4.38;59.78;98135.44;5041370;28;1983;-96
2022/04/05 02:43:59;;;;;;;;;;;;;;;4.38;59.59;98135.44;5041558;28;1458;-96
2022/04/05 02:46:25;;;;;;;;;;;;;;;4.37;59.85;98125.03;5041690;28;1221;-96
2022/04/05 02:48:54;;;;;;;;;;;;;;;4.34;59.84;98128.97;5041911;28;1304;-96
2022/04/05 02:51:21;;;;;;;;;;;;;;;4.41;59.64;98129.66;5041151;28;1510;-96
2022/04/05 02:53:47;;;;;;;;;;;;;;;4.41;59.53;98128.81;5043680;28;1303;-96
2022/04/05 02:56:14;;;;;;;;;;;;;;;4.39;59.63;98130.94;5041987;28;1202;-96
2022/04/05 02:58:41;;;;;;;;;;;;;;;4.40;59.82;98138.69;5040724;28;1530;-96
2022/04/05 03:01:08;;;;;;;;;;;;;;;4.42;59.61;98130.47;5041570;28;1670;-96
2022/04/05 03:03:34;;;;;;;;;;;;;;;4.39;59.62;98133.59;5038243;28;1956;-96
2022/04/05 03:06:01;;;;;;;;;;;;;;;4.39;59.72;98144.25;5037483;28;1840;-96
2022/04/05 03:08:28;;;;;;;;;;;;;;;4.42;59.34;98141.91;5036290;28;2805;-96
2022/04/05 03:10:54;;;;;;;;;;;;;;;4.44;59.44;98139.00;5032842;28;1178;-96
2022/04/05 03:13:21;;;;;;;;;;;;;;;4.41;59.63;98139.47;5023558;28;1227;-96
2022/04/05 03:15:47;;;;;;;;;;;;;;;4.43;59.36;98145.38;5040526;28;1678;-96
2022/04/05 03:18:14;;;;;;;;;;;;;;;4.39;59.68;98150.41;5041454;28;1641;-96
2022/04/05 03:20:40;;;;;;;;;;;;;;;4.39;59.46;98149.59;5039764;28;1563;-96
2022/04/05 03:23:07;;;;;;;;;;;;;;;4.44;59.45;98147.81;5040606;28;1918;-96
2022/04/05 03:25:34;;;;;;;;;;;;;;;4.42;59.41;98152.59;5041335;28;1341;-96
2022/04/05 03:28:01;;;;;;;;;;;;;;;4.46;59.36;98153.72;5032472;28;1380;-96
2022/04/05 03:30:27;;;;;;;;;;;;;;;4.46;59.36;98153.72;5040894;28;1335;-96
2022/04/05 03:32:54;;;;;;;;;;;;;;;4.40;59.50;98148.53;5041641;28;1288;-96
2022/04/05 03:35:20;;;;;;;;;;;;;;;4.45;59.38;98146.78;5041084;28;1399;-96
2022/04/05 03:37:47;;;;;;;;;;;;;;;4.41;59.39;98153.63;5040090;28;2795;-96
2022/04/05 03:40:14;;;;;;;;;;;;;;;4.43;59.49;98156.06;5040557;28;1567;-96
2022/04/05 03:42:40;;;;;;;;;;;;;;;4.44;59.39;98153.16;5040853;28;1918;-96
2022/04/05 03:45:07;;;;;;;;;;;;;;;4.45;59.41;98152.09;5040771;28;1729;-96
2022/04/05 03:47:33;;;;;;;;;;;;;;;4.43;59.34;98154.19;5038594;28;1568;-96
2022/04/05 03:50:00;;;;;;;;;;;;;;;4.43;59.49;98154.19;5028176;28;1698;-96
2022/04/05 03:52:27;;;;;;;;;;;;;;;4.46;59.36;98150.25;5041263;28;1788;-96
2022/04/05 03:54:53;;;;;;;;;;;;;;;4.47;59.36;98159.84;5057685;28;1771;-96
2022/04/05 03:57:20;;;;;;;;;;;;;;;4.46;59.34;98155.56;5041624;28;1598;-96
2022/04/05 03:59:46;;;;;;;;;;;;;;;4.46;59.16;98161.72;5041249;28;1352;-96
2022/04/05 04:02:13;;;;;;;;;;;;;;;4.44;59.47;98158.50;5039157;28;1982;-96
2022/04/05 04:04:39;;;;;;;;;;;;;;;4.46;59.42;98160.91;5057941;28;1432;-96
2022/04/05 04:07:06;;;;;;;;;;;;;;;4.50;59.02;98165.53;5030597;28;1343;-96
2022/04/05 04:09:32;;;;;;;;;;;;;;;4.45;59.21;98165.44;5051836;28;1673;-96
2022/04/05 04:11:59;;;;;;;;;;;;;;;4.52;58.99;98173.28;5055171;28;1354;-96
2022/04/05 04:14:25;;;;;;;;;;;;;;;4.47;59.27;98167.84;5065764;28;1231;-96
2022/04/05 04:16:52;;;;;;;;;;;;;;;4.51;59.15;98166.34;5052644;28;1180;-96
2022/04/05 04:19:19;;;;;;;;;;;;;;;4.54;59.02;98176.53;5041511;28;1420;-96
2022/04/05 04:21:45;;;;;;;;;;;;;;;4.49;59.29;98179.88;5041168;28;1644;-96
2022/04/05 04:24:12;;;;;;;;;;;;;;;4.50;59.27;98175.38;5040499;28;2082;-96
2022/04/05 04:26:40;;;;;;;;;;;;;;;4.48;59.13;98186.28;5042050;28;1326;-96
2022/04/05 04:29:07;;;;;;;;;;;;;;;4.50;59.14;98178.03;5028099;28;1666;-96
2022/04/05 04:31:34;;;;;;;;;;;;;;;4.52;58.88;98183.94;5041429;28;1241;-96
2022/04/05 04:34:06;;;;;;;;;;;;;;;4.55;58.97;98181.59;5048376;28;1175;-96
2022/04/05 04:36:40;;;;;;;;;;;;;;;4.52;58.84;98178.59;5031927;28;1128;-96
2022/04/05 04:39:17;;;;;;;;;;;;;;;4.49;59.18;98177.22;5039542;28;1571;-96
2022/04/05 04:41:43;;;;;;;;;;;;;;;4.53;59.01;98189.06;5048724;28;1461;-96
2022/04/05 04:44:10;;;;;;;;;;;;;;;4.52;59.06;98183.94;5042056;28;1899;-96
2022/04/05 04:46:37;;;;;;;;;;;;;;;4.51;58.89;98185.00;5042614;28;1879;-96
2022/04/05 04:49:03;;;;;;;;;;;;;;;4.51;59.09;98188.47;5039631;28;1435;-96
2022/04/05 04:51:29;;;;;;;;;;;;;;;4.50;58.89;98192.19;5027086;28;1478;-96
2022/04/05 04:53:56;;;;;;;;;;;;;;;4.50;59.01;98186.03;5040263;28;1590;-96
2022/04/05 04:56:22;;;;;;;;;;;;;;;4.53;59.31;98189.06;5040042;28;1420;-96
2022/04/05 04:58:49;;;;;;;;;;;;;;;4.55;58.90;98184.28;5041096;28;1618;-96
2022/04/05 05:01:15;;;;;;;;;;;;;;;4.53;59.11;98186.38;5039849;28;1438;-96
2022/04/05 05:03:42;;;;;;;;;;;;;;;4.49;59.16;98185.22;5037225;28;2582;-96
2022/04/05 05:06:08;;;;;;;;;;;;;;;4.53;59.10;98189.06;5053213;28;1503;-96
2022/04/05 05:08:35;;;;;;;;;;;;;;;4.55;59.04;98191.47;5036052;28;2218;-96
2022/04/05 05:11:01;;;;;;;;;;;;;;;4.54;59.01;98195.19;5039600;28;1550;-96
2022/04/05 05:13:28;;;;;;;;;;;;;;;4.53;58.97;98194.38;5038148;28;2383;-96
2022/04/05 05:15:54;;;;;;;;;;;;;;;4.62;58.85;98196.66;5037615;28;1950;-96
2022/04/05 05:18:21;;;;;;;;;;;;;;;4.59;58.74;98199.78;5039194;28;1566;-96
2022/04/05 05:20:47;;;;;;;;;;;;;;;4.52;59.12;98200.75;5037431;28;1486;-96
2022/04/05 05:23:14;;;;;;;;;;;;;;;4.50;59.35;98200.19;5037791;28;1922;-96
2022/04/05 05:25:40;;;;;;;;;;;;;;;4.53;58.94;98202.38;5037635;28;1479;-96
2022/04/05 05:28:07;;;;;;;;;;;;;;;4.55;59.11;98202.94;5034021;28;2278;-96
2022/04/05 05:30:33;;;;;;;;;;;;;;;4.58;59.12;98209.66;5032540;28;2693;-96
2022/04/05 05:33:00;;;;;;;;;;;;;;;4.54;58.91;98209.31;5042524;28;2390;-96
2022/04/05 05:35:26;;;;;;;;;;;;;;;4.55;58.98;98210.13;5039115;28;1551;-96
2022/04/05 05:37:53;;;;;;;;;;;;;;;4.56;58.92;98203.75;5045640;28;1353;-96
2022/04/05 05:40:20;;;;;;;;;;;;;;;4.58;58.79;98212.31;5043208;28;1712;-96
2022/04/05 05:42:49;;;;;;;;;;;;;;;4.60;58.73;98212.09;5046718;28;1991;-96
2022/04/05 05:45:15;;;;;;;;;;;;;;;4.57;59.01;98212.56;5041501;28;1562;-96
2022/04/05 05:47:42;;;;;;;;;;;;;;;4.54;58.86;98219.97;5041934;28;1484;-96
2022/04/05 05:50:10;;;;;;;;;;;;;;;4.55;58.96;98218.91;5043255;28;1966;-96
2022/04/05 05:52:36;;;;;;;;;;;;;;;4.56;58.91;98222.44;5039987;28;1387;-96
2022/04/05 05:55:03;;;;;;;;;;;;;;;4.55;59.01;98226.91;5044446;28;1756;-96
2022/04/05 05:57:30;;;;;;;;;;;;;;;4.61;58.79;98224.38;5043003;28;1768;-96
2022/04/05 05:59:56;;;;;;;;;;;;;;;4.53;58.97;98220.22;5041295;28;1545;-96
2022/04/05 06:02:23;;;;;;;;;;;;;;;4.57;58.99;98216.03;5033876;28;4725;-96
2022/04/05 06:04:49;;;;;;;;;;;;;;;4.58;58.84;98230.16;5052806;28;1352;-96
2022/04/05 06:07:18;;;;;;;;;;;;;;;4.57;58.85;98221.38;5043721;28;2068;-96
2022/04/05 06:09:45;;;;;;;;;;;;;;;4.60;58.79;98220.09;5035001;28;1467;-96
2022/04/05 06:12:11;;;;;;;;;;;;;;;4.62;58.78;98223.31;5054045;28;1970;-96
2022/04/05 06:14:38;;;;;;;;;;;;;;;4.62;58.84;98223.31;5040115;28;1268;-96
2022/04/05 06:17:05;;;;;;;;;;;;;;;4.61;58.73;98222.50;5057836;28;1630;-96
2022/04/05 06:19:31;;;;;;;;;;;;;;;4.61;58.65;98235.03;5041047;28;1768;-96
2022/04/05 06:21:58;;;;;;;;;;;;;;;4.59;58.97;98224.63;5041506;28;1664;-96
2022/04/05 06:24:24;;;;;;;;;;;;;;;4.61;58.99;98229.69;5041394;28;1898;-96
2022/04/05 06:26:51;;;;;;;;;;;;;;;4.64;58.83;98235.34;5039912;28;1529;-96
2022/04/05 06:29:17;;;;;;;;;;;;;;;4.64;58.75;98235.34;5039031;28;1612;-96
2022/04/05 06:31:44;;;;;;;;;;;;;;;4.66;58.66;98233.28;5036811;28;1507;-96
2022/04/05 06:34:10;;;;;;;;;;;;;;;4.61;58.97;98233.16;5040034;28;2183;-96
2022/04/05 06:36:36;;;;;;;;;;;;;;;4.61;58.91;98237.69;5040723;28;1951;-96
2022/04/05 06:39:03;;;;;;;;;;;;;;;4.61;59.06;98235.84;5039786;28;1439;-96
2022/04/05 06:41:29;;;;;;;;;;;;;;;4.61;59.06;98240.34;5039733;28;1588;-96
2022/04/05 06:43:56;;;;;;;;;;;;;;;4.56;59.06;98235.75;5040322;28;1914;-96
2022/04/05 06:46:23;;;;;;;;;;;;;;;4.67;58.74;98234.06;5034037;28;2248;-96
2022/04/05 06:48:50;;;;;;;;;;;;;;;4.68;58.69;98241.06;5031318;28;1635;-96
2022/04/05 06:51:16;;;;;;;;;;;;;;;4.66;58.72;98240.47;5039291;28;1653;-96
2022/04/05 06:53:43;;;;;;;;;;;;;;;4.65;59.07;98237.00;5039663;28;1336;-96
2022/04/05 06:56:10;;;;;;;;;;;;;;;4.67;58.71;98240.22;5040930;28;1640;-96
2022/04/05 06:58:36;;;;;;;;;;;;;;;4.67;58.69;98234.06;5058083;28;1266;-96
2022/04/05 07:01:03;;;;;;;;;;;;;;;4.61;59.00;98235.84;5038905;28;1491;-96
2022/04/05 07:03:29;;;;;;;;;;;;;;;4.72;58.64;98236.84;5036364;28;3684;-96
2022/04/05 07:05:57;;;;;;;;;;;;;;;4.64;58.78;98246.03;5037033;28;1680;-96
2022/04/05 07:08:24;;;;;;;;;;;;;;;4.68;58.81;98241.84;5037607;28;1534;-96
2022/04/05 07:10:51;;;;;;;;;;;;;;;4.65;58.88;98233.53;5038327;28;1204;-96
2022/04/05 07:13:17;;;;;;;;;;;;;;;4.65;59.09;98237.00;5041081;28;1289;-96
2022/04/05 07:15:44;;;;;;;;;;;;;;;4.74;58.66;98240.09;5045949;28;1510;-96
2022/04/05 07:18:11;;;;;;;;;;;;;;;4.71;58.78;98241.38;5036788;28;1692;-96
2022/04/05 07:20:38;;;;;;;;;;;;;;;4.76;58.62;98241.47;5037610;28;1381;-96
2022/04/05 07:23:04;;;;;;;;;;;;;;;4.68;58.89;98236.50;5037152;28;1985;-96
2022/04/05 07:25:31;;;;;;;;;;;;;;;4.80;58.61;98238.34;5039872;28;1977;-96
2022/04/05 07:27:58;;;;;;;;;;;;;;;4.73;58.63;98244.59;5039862;28;1759;-96
2022/04/05 07:30:24;;;;;;;;;;;;;;;4.72;58.90;98245.66;5040378;28;1512;-96
2022/04/05 07:32:51;;;;;;;;;;;;;;;4.74;58.95;98250.75;5023850;28;1498;-96
2022/04/05 07:35:18;;;;;;;;;;;;;;;4.75;58.82;98247.03;5040105;28;1600;-96
2022/04/05 07:37:45;;;;;;;;;;;;;;;4.79;58.74;98245.50;5041550;28;2119;-96
2022/04/05 07:40:12;;;;;;;;;;;;;;;4.77;58.82;98243.09;5042145;28;1849;-96
2022/04/05 07:42:38;;;;;;;;;;;;;;;4.79;58.74;98248.16;5042580;28;1608;-96
2022/04/05 07:45:06;;;;;;;;;;;;;;;4.77;58.76;98248.41;5042435;28;1956;-96
2022/04/05 07:47:33;;;;;;;;;;;;;;;4.91;58.50;98254.28;5043864;28;1801;-96
2022/04/05 07:50:00;;;;;;;;;;;;;;;4.86;58.73;98250.72;5044250;28;1319;-96
2022/04/05 07:52:27;;;;;;;;;;;;;;;4.83;59.02;98248.53;5047084;28;1355;-96
2022/04/05 07:54:54;;;;;;;;;;;;;;;4.86;58.82;98254.19;5045878;28;1212;-96
2022/04/05 07:57:21;;;;;;;;;;;;;;;4.86;58.67;98250.72;5076486;22;3659;-96
2022/04/05 07:59:48;;;;;;;;;;;;;;;4.88;58.96;98252.09;5062688;28;1286;-96
2022/04/05 08:02:19;;;;;;;;;;;;;;;4.94;58.63;98252.97;5053157;28;1320;-96
2022/04/05 08:04:47;;;;;;;;;;;;;;;4.88;58.81;98249.44;5051400;28;1954;-96
2022/04/05 08:07:14;;;;;;;;;;;;;;;4.86;58.84;98256.06;5049295;28;1218;-96
2022/04/05 08:09:43;;;;;;;;;;;;;;;4.87;58.86;98258.47;5051825;28;901;-96
2022/04/05 08:12:11;;;;;;;;;;;;;;;4.87;59.06;98252.31;5033944;28;1280;-96
2022/04/05 08:14:41;;;;;;;;;;;;;;;4.94;58.96;98251.16;5052509;28;845;-96
2022/04/05 08:17:17;;;;;;;;;;;;;;;4.95;58.98;98252.75;5036781;28;1012;-96
2022/04/05 08:22:31;;;;;;;;;;;;;;;4.94;58.92;98251.16;5060881;28;1306;-96
2022/04/05 08:24:59;;;;;;;;;;;;;;;4.94;58.88;98252.97;5056860;28;1958;-96
2022/04/05 08:27:30;;;;;;;;;;;;;;;4.97;58.94;98256.00;5075867;28;933;-96
2022/04/05 08:30:04;;;;;;;;;;;;;;;4.99;59.10;98253.06;5075546;28;989;-96
2022/04/05 08:32:42;;;;;;;;;;;;;;;4.98;59.06;98265.59;5041736;28;1211;-96
2022/04/05 08:35:19;;;;;;;;;;;;;;;5.01;59.00;98257.13;5075289;28;902;-96
2022/04/05 15:11:25;;;;;;;;;;;;;;;7.07;60.40;98301.78;5915739;22;2120;-96
2022/04/05 20:26:50;;;;;;;;;;;;;;;7.08;63.17;98472.03;5542360;22;3584;-96
2022/04/05 20:29:16;;;;;;;;;;;;;;;7.08;nan;98468.56;5066451;28;2126;-95
2022/04/05 20:31:43;;;;;;;;;;;;;;;7.04;63.02;98461.03;5055220;28;4708;-96
2022/04/05 20:34:09;;;;;;;;;;;;;;;7.03;62.95;98475.47;5059534;28;4210;-96
2022/04/05 20:36:35;;;;;;;;;;;;;;;7.01;63.30;98472.22;5061543;28;2276;-96
2022/04/05 20:39:02;;;;;;;;;;;;;;;7.00;63.06;98464.44;5073155;28;1756;-96
2022/04/05 20:41:28;;;;;;;;;;;;;;;6.99;62.94;98470.84;5070334;28;1575;-96
2022/04/05 20:43:55;;;;;;;;;;;;;;;6.97;63.01;98462.25;5055763;28;1914;-96
2022/04/05 20:46:21;;;;;;;;;;;;;;;6.96;62.97;98464.13;5070580;28;1201;-95
2022/04/05 20:48:48;;;;;;;;;;;;;;;6.94;62.99;98458.22;5073340;28;1614;-96
2022/04/05 20:51:15;;;;;;;;;;;;;;;6.93;63.27;98463.81;5072580;28;1914;-96
2022/04/05 20:53:42;;;;;;;;;;;;;;;6.92;63.35;98459.53;5074008;28;1297;-96
2022/04/05 20:56:08;;;;;;;;;;;;;;;6.90;62.91;98458.94;5057627;28;1278;-96
2022/04/05 20:58:35;;;;;;;;;;;;;;;6.89;63.12;98460.00;5073642;28;1585;-96
2022/04/05 21:01:02;;;;;;;;;;;;;;;6.87;62.90;98465.59;5071485;28;1344;-95
2022/04/05 21:03:28;;;;;;;;;;;;;;;6.85;63.00;98462.34;5073951;28;1187;-96
2022/04/05 21:05:55;;;;;;;;;;;;;;;6.84;62.89;98458.06;5058574;28;1983;-96
2022/04/05 21:08:21;;;;;;;;;;;;;;;6.83;62.95;98470.63;5053213;28;1560;-96
2022/04/05 21:10:48;;;;;;;;;;;;;;;6.83;63.15;98461.81;5054394;28;1267;-96
2022/04/05 21:13:14;;;;;;;;;;;;;;;6.81;62.97;98466.59;5054067;28;1368;-96
2022/04/05 21:15:41;;;;;;;;;;;;;;;6.77;63.09;98460.13;5052303;28;1512;-96
2022/04/05 21:18:08;;;;;;;;;;;;;;;6.78;62.87;98470.56;5046208;28;1289;-96
2022/04/05 21:20:34;;;;;;;;;;;;;;;6.75;63.02;98459.53;5050216;28;1589;-96
2022/04/05 21:23:00;;;;;;;;;;;;;;;6.72;62.98;98454.69;5049822;28;1437;-96
2022/04/05 21:25:27;;;;;;;;;;;;;;;6.71;63.09;98459.22;5043499;28;1914;-96
2022/04/05 21:27:53;;;;;;;;;;;;;;;6.69;62.88;98458.66;5053242;28;1577;-96
2022/04/05 21:30:19;;;;;;;;;;;;;;;6.69;63.03;98449.81;5052887;28;1527;-96
2022/04/05 21:32:47;;;;;;;;;;;;;;;6.66;62.85;98453.00;5053628;28;1274;-96
2022/04/05 21:35:13;;;;;;;;;;;;;;;6.65;63.20;98454.88;5054072;28;1525;-96
2022/04/05 21:37:40;;;;;;;;;;;;;;;6.64;62.91;98447.88;5053797;28;1621;-96
2022/04/05 21:40:06;;;;;;;;;;;;;;;6.63;62.87;98454.28;5052386;28;1506;-96
2022/04/05 21:42:32;;;;;;;;;;;;;;;6.62;62.99;98455.34;5054036;28;1152;-96
2022/04/05 21:44:59;;;;;;;;;;;;;;;6.59;63.19;98453.97;5052853;28;1907;-96
2022/04/05 21:47:25;;;;;;;;;;;;;;;6.58;63.21;98452.34;5053434;28;1891;-96
2022/04/05 21:49:52;;;;;;;;;;;;;;;6.58;62.90;98451.53;5053622;28;1294;-96
2022/04/05 21:52:18;;;;;;;;;;;;;;;6.56;62.99;98445.63;5053371;28;1359;-96
2022/04/05 21:54:45;;;;;;;;;;;;;;;6.54;63.21;98453.09;5052030;28;1602;-96
2022/04/05 21:57:11;;;;;;;;;;;;;;;6.52;62.93;98449.84;5054203;28;1399;-96
2022/04/05 21:59:38;;;;;;;;;;;;;;;6.52;62.76;98447.16;5053725;28;1226;-96
2022/04/05 22:02:05;;;;;;;;;;;;;;;6.50;62.98;98443.91;5052995;28;1501;-96
2022/04/05 22:04:31;;;;;;;;;;;;;;;6.49;62.73;98444.97;5055148;28;1922;-95
2022/04/05 22:06:58;;;;;;;;;;;;;;;6.47;62.86;98444.41;5057380;28;1658;-96
2022/04/05 22:09:24;;;;;;;;;;;;;;;6.46;63.01;98445.47;5040872;28;1268;-96
2022/04/05 22:11:51;;;;;;;;;;;;;;;6.45;62.88;98444.66;5053973;28;1387;-96
2022/04/05 22:14:17;;;;;;;;;;;;;;;6.43;63.00;98448.63;5053812;28;1388;-96
2022/04/05 22:16:44;;;;;;;;;;;;;;;6.40;63.02;98449.91;5057206;28;1526;-96
2022/04/05 22:19:10;;;;;;;;;;;;;;;6.40;62.70;98457.94;5052512;28;1850;-96
2022/04/05 22:21:37;;;;;;;;;;;;;;;6.39;62.73;98458.19;5057959;28;1175;-96
2022/04/05 22:24:04;;;;;;;;;;;;;;;6.37;62.54;98459.22;5043164;28;1977;-96
2022/04/05 22:26:31;;;;;;;;;;;;;;;6.34;62.62;98459.72;5040286;28;1563;-96
2022/04/05 22:28:57;;;;;;;;;;;;;;;6.34;62.75;98465.06;5055475;28;1471;-96
2022/04/05 22:31:25;;;;;;;;;;;;;;;6.32;62.63;98461.00;5053418;28;1522;-96
2022/04/05 22:33:51;;;;;;;;;;;;;;;6.30;63.08;98461.28;5042731;28;4193;-96
2022/04/05 22:36:18;;;;;;;;;;;;;;;6.29;62.61;98459.63;5053829;28;4911;-96
2022/04/05 22:38:44;;;;;;;;;;;;;;;6.27;62.61;98460.97;5055947;28;1216;-96
2022/04/05 22:41:10;;;;;;;;;;;;;;;6.25;62.64;98466.53;5064289;28;1319;-96
2022/04/05 22:43:37;;;;;;;;;;;;;;;6.24;62.78;98464.13;5046615;28;1554;-96
2022/04/05 22:46:03;;;;;;;;;;;;;;;6.22;62.69;98461.66;5055820;28;1898;-96
2022/04/05 22:48:30;;;;;;;;;;;;;;;6.21;62.52;98456.56;5044296;28;1199;-96
2022/04/05 22:50:58;;;;;;;;;;;;;;;6.20;62.54;98449.59;5053131;28;1279;-96
2022/04/05 22:53:24;;;;;;;;;;;;;;;6.19;62.79;98456.00;5057235;28;1196;-96
2022/04/05 22:55:50;;;;;;;;;;;;;;;6.16;62.56;98459.97;5056761;28;1629;-96
2022/04/05 22:58:17;;;;;;;;;;;;;;;6.14;62.70;98460.19;5057644;28;1115;-96
2022/04/05 23:00:43;;;;;;;;;;;;;;;6.13;62.45;98460.44;5054954;28;1498;-96
2022/04/05 23:03:09;;;;;;;;;;;;;;;6.11;62.82;98452.66;5055623;28;3258;-96
2022/04/05 23:05:36;;;;;;;;;;;;;;;6.11;62.47;98462.53;5052925;28;1982;-96
2022/04/05 23:08:02;;;;;;;;;;;;;;;6.08;62.46;98453.16;5039681;28;1278;-96
2022/04/05 23:10:28;;;;;;;;;;;;;;;6.07;62.62;98454.19;5055569;28;2006;-96
2022/04/05 23:12:55;;;;;;;;;;;;;;;6.06;62.76;98447.25;5039574;28;1573;-96
2022/04/05 23:15:21;;;;;;;;;;;;;;;6.05;62.34;98455.50;5055737;28;1669;-96
2022/04/05 23:17:48;;;;;;;;;;;;;;;6.04;62.62;98443.19;5057118;28;1099;-96
2022/04/05 23:20:14;;;;;;;;;;;;;;;6.03;62.68;98449.56;5056434;28;1197;-96
2022/04/05 23:22:41;;;;;;;;;;;;;;;6.01;62.48;98443.69;5045306;28;1558;-96
2022/04/05 23:25:07;;;;;;;;;;;;;;;6.00;62.55;98450.06;5055538;28;1975;-96
2022/04/05 23:27:33;;;;;;;;;;;;;;;5.97;62.59;98451.38;5055916;28;1220;-96
2022/04/05 23:30:00;;;;;;;;;;;;;;;5.96;62.58;98457.75;5055373;28;1402;-96
2022/04/05 23:32:26;;;;;;;;;;;;;;;5.94;62.70;98453.69;5056401;28;1254;-96
2022/04/05 23:34:52;;;;;;;;;;;;;;;5.93;62.42;98447.53;5056329;28;1266;-96
2022/04/05 23:37:20;;;;;;;;;;;;;;;5.92;62.28;98448.56;5054833;28;2309;-96
2022/04/05 23:39:46;;;;;;;;;;;;;;;5.90;62.63;98451.47;5056971;28;1095;-96
2022/04/05 23:42:13;;;;;;;;;;;;;;;5.89;62.55;98455.19;5031978;28;1688;-96
2022/04/05 23:44:39;;;;;;;;;;;;;;;5.87;62.22;98457.28;5042834;28;1914;-96
2022/04/05 23:47:05;;;;;;;;;;;;;;;5.87;62.61;98457.28;5072201;28;1351;-96
2022/04/05 23:49:33;;;;;;;;;;;;;;;5.85;62.43;98455.91;5054834;28;1932;-96
2022/04/05 23:51:59;;;;;;;;;;;;;;;5.85;62.63;98463.91;5053384;28;1649;-96
2022/04/05 23:54:25;;;;;;;;;;;;;;;5.83;62.17;98455.34;5055601;28;1561;-96
2022/04/05 23:56:52;;;;;;;;;;;;;;;5.82;62.12;98459.06;5039134;28;1251;-96
2022/04/05 23:59:18;;;;;;;;;;;;;;;5.81;62.28;98463.59;5046036;28;1259;-96
